Terminal Aerodrome Forecast
Issued by NWS

Home | Current Version | Previous Version | Text Only | Print | Product List | Glossary On
Versions: 1 2 3 4 5 6 7 8 9 10 11 12 13 14 15
000
FTUS43 KGRB 272200 AAB
TAFMTW
TAF AMD
KMTW 272234Z 2723/2818 35010G17KT P6SM VCSH SCT025 BKN040
      TEMPO 2723/2724 BKN015 BKN025
     FM280000 35012KT P6SM SCT015 BKN030
     FM280300 36011KT P6SM SCT030
     FM280600 35009KT P6SM SKC
     FM281600 36010G16KT P6SM SCT040=

USA.gov is the U.S. government's official web portal to all federal, state and local government web resources and services.